createdAt,value
2022-09-12T00:00:13.980Z,42.56
2022-09-12T00:00:45.514Z,42.30
2022-09-12T00:01:16.940Z,42.71
2022-09-12T00:01:48.399Z,42.86
2022-09-12T00:02:19.838Z,42.84
2022-09-12T00:02:51.260Z,42.56
2022-09-12T00:03:22.644Z,42.65
2022-09-12T00:03:54.029Z,42.77
2022-09-12T00:04:25.431Z,42.83
2022-09-12T00:04:56.817Z,42.47
2022-09-12T00:05:28.251Z,42.67
2022-09-12T00:05:59.627Z,42.66
2022-09-12T00:06:31.016Z,42.88
2022-09-12T00:07:02.424Z,42.28
2022-09-12T00:07:33.823Z,42.89
2022-09-12T00:08:05.207Z,42.65
2022-09-12T00:08:36.587Z,42.32
2022-09-12T00:09:07.996Z,42.41
2022-09-12T00:09:39.395Z,42.54
2022-09-12T00:10:10.776Z,42.35
2022-09-12T00:10:42.296Z,42.42
2022-09-12T00:11:13.706Z,42.59
2022-09-12T00:11:45.089Z,42.49
2022-09-12T00:12:16.473Z,42.82
2022-09-12T00:12:47.879Z,42.60
2022-09-12T00:13:19.261Z,42.70
2022-09-12T00:13:50.647Z,42.68
2022-09-12T00:14:22.030Z,42.95
2022-09-12T00:14:53.416Z,42.71
2022-09-12T00:15:24.808Z,42.76
2022-09-12T00:15:56.260Z,43.01
2022-09-12T00:16:27.724Z,42.50
2022-09-12T00:16:59.158Z,42.37
2022-09-12T00:17:30.559Z,42.76
2022-09-12T00:18:01.963Z,42.10
2022-09-12T00:18:33.360Z,42.47
2022-09-12T00:19:04.765Z,42.68
2022-09-12T00:19:36.153Z,42.51
2022-09-12T00:20:07.560Z,42.53
2022-09-12T00:20:38.968Z,42.58
2022-09-12T00:21:10.449Z,42.74
2022-09-12T00:21:41.854Z,43.07
2022-09-12T00:22:13.235Z,42.66
2022-09-12T00:22:44.639Z,42.92
2022-09-12T00:23:16.015Z,42.56
2022-09-12T00:23:47.443Z,43.06
2022-09-12T00:24:18.835Z,42.48
2022-09-12T00:24:50.222Z,42.55
2022-09-12T00:25:21.613Z,42.64
2022-09-12T00:25:53.011Z,42.42
2022-09-12T00:26:24.479Z,42.69
2022-09-12T00:26:55.863Z,42.45
2022-09-12T00:27:27.256Z,42.36
2022-09-12T00:27:58.659Z,42.80
2022-09-12T00:28:30.059Z,42.74
2022-09-12T00:29:01.458Z,43.05
2022-09-12T00:29:32.851Z,42.80
2022-09-12T00:30:04.251Z,42.88
2022-09-12T00:30:35.640Z,42.57
2022-09-12T00:31:07.056Z,42.94
2022-09-12T00:31:38.586Z,42.81
2022-09-12T00:32:10.067Z,42.71
2022-09-12T00:32:41.451Z,42.74
2022-09-12T00:33:12.857Z,42.78
2022-09-12T00:33:44.240Z,42.58
2022-09-12T00:34:15.645Z,42.70
2022-09-12T00:34:47.057Z,42.97
2022-09-12T00:35:18.464Z,42.81
2022-09-12T00:35:49.867Z,42.80
2022-09-12T00:36:21.249Z,42.68
2022-09-12T00:36:52.669Z,43.06
2022-09-12T00:37:24.070Z,42.96
2022-09-12T00:37:55.460Z,43.03
2022-09-12T00:38:26.865Z,42.86
2022-09-12T00:38:58.251Z,42.51
2022-09-12T00:39:29.637Z,42.69
2022-09-12T00:40:01.118Z,43.05
2022-09-12T00:40:32.523Z,43.11
2022-09-12T00:41:03.913Z,42.77
2022-09-12T00:41:35.313Z,42.51
2022-09-12T00:42:06.780Z,42.64
2022-09-12T00:42:38.170Z,42.94
2022-09-12T00:43:09.568Z,42.88
2022-09-12T00:43:40.976Z,42.72
2022-09-12T00:44:12.358Z,42.81
2022-09-12T00:44:43.747Z,42.83
2022-09-12T00:45:15.131Z,42.94
2022-09-12T00:45:46.552Z,43.04
2022-09-12T00:46:17.963Z,42.79
2022-09-12T00:46:49.344Z,42.93
2022-09-12T00:47:20.790Z,42.94
2022-09-12T00:47:52.173Z,43.03
2022-09-12T00:48:23.580Z,43.18
2022-09-12T00:48:54.963Z,42.80
2022-09-12T00:49:26.368Z,43.17
2022-09-12T00:49:57.755Z,42.96
2022-09-12T00:50:29.152Z,43.16
2022-09-12T00:51:00.533Z,43.24
2022-09-12T00:51:31.916Z,42.78
2022-09-12T00:52:03.313Z,43.01
2022-09-12T00:52:34.716Z,42.81
2022-09-12T00:53:06.115Z,42.74
2022-09-12T00:53:37.506Z,42.83
2022-09-12T00:54:08.912Z,43.05
2022-09-12T00:54:40.316Z,43.06
2022-09-12T00:55:11.700Z,42.97
2022-09-12T00:55:43.089Z,42.82
2022-09-12T00:56:14.471Z,43.28
2022-09-12T00:56:45.857Z,43.26
2022-09-12T00:57:17.244Z,42.84
2022-09-12T00:57:48.742Z,42.92
2022-09-12T00:58:20.140Z,42.83
2022-09-12T00:58:51.525Z,42.68
2022-09-12T00:59:22.903Z,43.28
2022-09-12T00:59:54.303Z,42.70
2022-09-12T01:00:25.724Z,42.69
2022-09-12T01:00:57.235Z,43.33
2022-09-12T01:01:32.344Z,42.99
2022-09-12T01:02:04.191Z,42.86
2022-09-12T01:02:35.762Z,42.93
2022-09-12T01:03:07.174Z,42.96
2022-09-12T01:03:38.558Z,42.54
2022-09-12T01:04:09.945Z,42.69
2022-09-12T01:04:41.328Z,43.22
2022-09-12T01:05:12.712Z,42.98
2022-09-12T01:05:44.188Z,43.05
2022-09-12T01:06:15.572Z,43.02
2022-09-12T01:06:46.958Z,42.90
2022-09-12T01:07:18.344Z,42.93
2022-09-12T01:07:49.835Z,42.94
2022-09-12T01:08:21.241Z,43.13
2022-09-12T01:08:52.639Z,43.08
2022-09-12T01:09:24.020Z,43.20
2022-09-12T01:09:55.418Z,43.10
2022-09-12T01:10:26.805Z,43.29
2022-09-12T01:10:58.227Z,42.97
2022-09-12T01:11:29.623Z,42.98
2022-09-12T01:12:01.007Z,43.06
2022-09-12T01:12:32.394Z,43.14
2022-09-12T01:13:03.812Z,42.84
2022-09-12T01:13:35.201Z,43.14
2022-09-12T01:14:06.602Z,43.40
2022-09-12T01:14:38.000Z,43.18
2022-09-12T01:15:09.379Z,43.07
2022-09-12T01:15:40.783Z,42.93
2022-09-12T01:16:12.195Z,43.27
2022-09-12T01:16:43.645Z,43.18
2022-09-12T01:17:15.040Z,43.08
2022-09-12T01:17:46.428Z,43.26
2022-09-12T01:18:17.831Z,42.84
2022-09-12T01:18:49.218Z,43.58
2022-09-12T01:19:20.609Z,43.19
2022-09-12T01:19:51.991Z,43.14
2022-09-12T01:20:23.398Z,42.91
2022-09-12T01:20:54.788Z,42.93
2022-09-12T01:21:26.190Z,43.20
2022-09-12T01:21:57.576Z,43.05
2022-09-12T01:22:28.973Z,43.02
2022-09-12T01:23:00.359Z,42.89
2022-09-12T01:23:31.804Z,43.23
2022-09-12T01:24:03.183Z,43.35
2022-09-12T01:24:34.592Z,43.07
2022-09-12T01:25:05.995Z,43.30
2022-09-12T01:25:37.377Z,43.13
2022-09-12T01:26:08.783Z,42.91
2022-09-12T01:26:40.163Z,43.13
2022-09-12T01:27:11.548Z,43.26
2022-09-12T01:27:42.957Z,43.32
2022-09-12T01:28:14.361Z,43.24
2022-09-12T01:28:45.979Z,43.35
2022-09-12T01:29:17.449Z,43.33
2022-09-12T01:29:48.836Z,43.24
2022-09-12T01:30:20.226Z,43.16
2022-09-12T01:30:51.648Z,43.57
2022-09-12T01:31:23.032Z,43.08
2022-09-12T01:31:54.461Z,43.54
2022-09-12T01:32:25.949Z,43.50
2022-09-12T01:32:57.352Z,42.98
2022-09-12T01:33:28.755Z,43.37
2022-09-12T01:34:00.227Z,43.21
2022-09-12T01:34:31.607Z,43.39
2022-09-12T01:35:02.986Z,43.39
2022-09-12T01:35:34.371Z,43.16
2022-09-12T01:36:05.770Z,42.97
2022-09-12T01:36:37.156Z,43.32
2022-09-12T01:37:08.544Z,43.32
2022-09-12T01:37:39.947Z,43.51
2022-09-12T01:38:11.336Z,43.12
2022-09-12T01:38:42.735Z,42.85
2022-09-12T01:39:14.180Z,43.18
2022-09-12T01:39:45.622Z,43.14
2022-09-12T01:40:17.067Z,43.22
2022-09-12T01:40:48.464Z,43.30
2022-09-12T01:41:19.852Z,43.24
2022-09-12T01:41:51.252Z,42.98
2022-09-12T01:42:22.656Z,43.68
2022-09-12T01:42:54.042Z,43.59
2022-09-12T01:43:25.441Z,43.07
2022-09-12T01:43:56.833Z,43.31
2022-09-12T01:44:28.339Z,43.66
2022-09-12T01:44:59.723Z,43.29
2022-09-12T01:45:31.140Z,43.42
2022-09-12T01:46:02.599Z,43.26
2022-09-12T01:46:34.100Z,43.05
2022-09-12T01:47:05.492Z,43.56
2022-09-12T01:47:36.898Z,43.30
2022-09-12T01:48:08.303Z,43.09
2022-09-12T01:48:39.697Z,43.67
2022-09-12T01:49:11.099Z,42.82
2022-09-12T01:49:42.528Z,43.25
2022-09-12T01:50:13.916Z,43.20
2022-09-12T01:50:45.386Z,43.22
2022-09-12T01:51:16.780Z,43.26
2022-09-12T01:51:48.187Z,43.49
2022-09-12T01:52:19.593Z,42.99
2022-09-12T01:52:50.980Z,43.34
2022-09-12T01:53:22.368Z,43.88
2022-09-12T01:53:53.748Z,43.11
2022-09-12T01:54:25.137Z,43.34
2022-09-12T01:54:56.568Z,43.33
2022-09-12T01:55:27.951Z,43.32
2022-09-12T01:55:59.331Z,43.45
2022-09-12T01:56:30.721Z,43.46
2022-09-12T01:57:02.128Z,43.09
2022-09-12T01:57:33.527Z,43.43
2022-09-12T01:58:04.916Z,43.62
2022-09-12T01:58:36.304Z,43.06
2022-09-12T01:59:07.707Z,43.48
2022-09-12T01:59:39.110Z,43.04
2022-09-12T02:00:10.527Z,43.21
2022-09-12T02:00:41.932Z,43.36
2022-09-12T02:01:13.373Z,43.00
2022-09-12T02:01:44.800Z,43.10
2022-09-12T02:02:16.231Z,43.13
2022-09-12T02:02:47.636Z,42.92
2022-09-12T02:03:19.021Z,43.38
2022-09-12T02:03:50.404Z,43.50
2022-09-12T02:04:21.809Z,43.22
2022-09-12T02:04:53.207Z,43.65
2022-09-12T02:05:24.704Z,43.41
2022-09-12T02:05:56.082Z,43.45
2022-09-12T02:06:27.488Z,43.45
2022-09-12T02:06:58.876Z,43.39
2022-09-12T02:07:30.257Z,43.59
2022-09-12T02:08:01.641Z,43.31
2022-09-12T02:08:33.051Z,43.20
2022-09-12T02:09:04.444Z,43.41
2022-09-12T02:09:35.848Z,43.37
2022-09-12T02:10:07.312Z,43.41
2022-09-12T02:10:38.697Z,43.70
2022-09-12T02:11:10.099Z,43.45
2022-09-12T02:11:41.481Z,43.47
2022-09-12T02:12:12.880Z,43.79
2022-09-12T02:12:44.259Z,43.45
2022-09-12T02:13:15.662Z,43.30
2022-09-12T02:13:47.079Z,43.32
2022-09-12T02:14:18.539Z,43.08
2022-09-12T02:14:49.920Z,43.30
2022-09-12T02:15:21.305Z,43.27
2022-09-12T02:15:52.712Z,43.86
2022-09-12T02:16:24.136Z,43.61
2022-09-12T02:16:55.538Z,43.98
2022-09-12T02:17:26.926Z,43.49
2022-09-12T02:17:58.321Z,43.79
2022-09-12T02:18:29.716Z,43.73
2022-09-12T02:19:01.104Z,43.65
2022-09-12T02:19:32.488Z,43.48
2022-09-12T02:20:03.872Z,43.88
2022-09-12T02:20:47.947Z,43.72
2022-09-12T02:21:20.096Z,43.59
2022-09-12T02:21:51.508Z,43.64
2022-09-12T02:22:22.896Z,43.14
2022-09-12T02:22:54.296Z,43.25
2022-09-12T02:23:25.684Z,43.30
2022-09-12T02:23:57.079Z,43.81
2022-09-12T02:24:28.490Z,43.54
2022-09-12T02:24:59.877Z,43.42
2022-09-12T02:25:31.373Z,43.34
2022-09-12T02:26:02.763Z,43.79
2022-09-12T02:26:34.149Z,43.28
2022-09-12T02:27:05.533Z,44.01
2022-09-12T02:27:36.926Z,43.61
2022-09-12T02:28:08.332Z,43.52
2022-09-12T02:28:39.740Z,43.55
2022-09-12T02:29:11.129Z,43.51
2022-09-12T02:29:42.513Z,43.83
2022-09-12T02:30:13.916Z,43.62
2022-09-12T02:30:45.474Z,43.91
2022-09-12T02:31:16.891Z,43.65
2022-09-12T02:31:48.276Z,43.32
2022-09-12T02:32:19.737Z,43.52
2022-09-12T02:32:51.124Z,43.66
2022-09-12T02:33:22.508Z,43.66
2022-09-12T02:33:53.887Z,43.69
2022-09-12T02:34:25.285Z,43.64
2022-09-12T02:34:56.685Z,43.81
2022-09-12T02:35:28.064Z,43.96
2022-09-12T02:35:59.491Z,43.82
2022-09-12T02:36:30.886Z,43.63
2022-09-12T02:37:02.267Z,43.70
2022-09-12T02:37:33.676Z,43.42
2022-09-12T02:38:05.083Z,43.63
2022-09-12T02:38:36.468Z,43.85
2022-09-12T02:39:07.859Z,43.70
2022-09-12T02:39:43.257Z,43.75
2022-09-12T02:40:16.506Z,43.96
2022-09-12T02:40:48.069Z,43.66
2022-09-12T02:41:19.456Z,43.85
2022-09-12T02:41:50.841Z,44.03
2022-09-12T02:42:22.248Z,43.40
2022-09-12T02:42:53.652Z,43.70
2022-09-12T02:43:25.041Z,43.75
2022-09-12T02:43:56.429Z,43.54
2022-09-12T02:44:27.837Z,43.88
2022-09-12T02:44:59.221Z,43.62
2022-09-12T02:45:30.649Z,43.93
2022-09-12T02:46:02.165Z,43.73
2022-09-12T02:46:33.610Z,43.74
2022-09-12T02:47:05.012Z,44.07
2022-09-12T02:47:36.427Z,43.61
2022-09-12T02:48:07.834Z,43.58
2022-09-12T02:48:41.406Z,43.60
2022-09-12T02:49:12.956Z,43.83
2022-09-12T02:49:44.356Z,43.37
2022-09-12T02:50:15.736Z,43.72
2022-09-12T02:50:47.120Z,43.41
2022-09-12T02:51:23.011Z,43.55
2022-09-12T02:51:55.200Z,43.62
2022-09-12T02:52:26.581Z,43.92
2022-09-12T02:52:57.980Z,44.22
2022-09-12T02:53:29.375Z,44.11
2022-09-12T02:54:00.756Z,43.52
2022-09-12T02:54:32.138Z,44.05
2022-09-12T02:55:03.526Z,43.73
2022-09-12T02:55:34.939Z,43.90
2022-09-12T02:56:06.332Z,43.94
2022-09-12T02:56:37.824Z,43.92
2022-09-12T02:57:09.217Z,43.80
2022-09-12T02:57:40.633Z,43.79
2022-09-12T02:58:12.015Z,43.53
2022-09-12T02:58:43.396Z,44.11
2022-09-12T02:59:14.779Z,43.66
2022-09-12T02:59:46.168Z,43.45
2022-09-12T03:00:17.576Z,43.92
2022-09-12T03:00:48.984Z,43.83
2022-09-12T03:01:20.398Z,43.48
2022-09-12T03:01:51.909Z,43.83
2022-09-12T03:02:23.328Z,43.92
2022-09-12T03:02:54.742Z,43.86
2022-09-12T03:03:26.125Z,43.95
2022-09-12T03:03:57.510Z,43.73
2022-09-12T03:04:28.924Z,43.82
2022-09-12T03:05:00.338Z,43.81
2022-09-12T03:05:31.732Z,43.56
2022-09-12T03:06:03.119Z,43.74
2022-09-12T03:06:34.506Z,44.09
2022-09-12T03:07:06.025Z,44.10
2022-09-12T03:07:37.438Z,43.94
2022-09-12T03:08:08.826Z,43.30
2022-09-12T03:08:40.205Z,43.97
2022-09-12T03:09:11.601Z,44.09
2022-09-12T03:09:42.987Z,43.92
2022-09-12T03:10:14.383Z,43.56
2022-09-12T03:10:45.760Z,44.04
2022-09-12T03:11:17.144Z,43.82
2022-09-12T03:11:48.527Z,43.77
2022-09-12T03:12:19.992Z,43.74
2022-09-12T03:12:51.377Z,43.81
2022-09-12T03:13:22.769Z,43.53
2022-09-12T03:13:54.179Z,44.04
2022-09-12T03:14:25.559Z,44.07
2022-09-12T03:14:56.945Z,43.56
2022-09-12T03:15:28.352Z,43.32
2022-09-12T03:15:59.755Z,43.91
2022-09-12T03:16:31.163Z,44.19
2022-09-12T03:17:02.555Z,44.24
2022-09-12T03:17:34.072Z,43.69
2022-09-12T03:18:05.459Z,43.81
2022-09-12T03:18:36.844Z,43.99
2022-09-12T03:19:08.229Z,43.71
2022-09-12T03:19:39.616Z,43.55
2022-09-12T03:20:11.001Z,43.90
2022-09-12T03:20:42.380Z,43.85
2022-09-12T03:21:13.764Z,44.15
2022-09-12T03:21:45.145Z,44.43
2022-09-12T03:22:16.572Z,44.03
2022-09-12T03:22:50.999Z,44.07
2022-09-12T03:23:22.635Z,43.78
2022-09-12T03:23:54.019Z,43.83
2022-09-12T03:24:25.400Z,44.10
2022-09-12T03:24:56.800Z,44.31
2022-09-12T03:25:28.204Z,43.85
2022-09-12T03:25:59.583Z,43.63
2022-09-12T03:26:30.980Z,44.11
2022-09-12T03:27:02.397Z,43.97
2022-09-12T03:27:33.775Z,43.71
2022-09-12T03:28:05.238Z,43.96
2022-09-12T03:28:36.625Z,44.00
2022-09-12T03:29:08.036Z,43.75
2022-09-12T03:29:39.415Z,44.08
2022-09-12T03:30:10.791Z,43.88
2022-09-12T03:30:42.228Z,44.35
2022-09-12T03:31:13.649Z,43.57
2022-09-12T03:31:45.051Z,43.64
2022-09-12T03:32:16.461Z,44.08
2022-09-12T03:32:47.842Z,44.19
2022-09-12T03:33:19.227Z,43.96
2022-09-12T03:33:50.627Z,44.06
2022-09-12T03:34:22.028Z,43.98
2022-09-12T03:34:53.407Z,43.92
2022-09-12T03:35:24.813Z,43.88
2022-09-12T03:35:56.215Z,43.78
2022-09-12T03:36:27.591Z,44.42
2022-09-12T03:36:58.995Z,44.18
2022-09-12T03:37:30.384Z,43.88
2022-09-12T03:38:01.767Z,43.85
2022-09-12T03:38:33.262Z,44.00
2022-09-12T03:39:04.647Z,43.87
2022-09-12T03:39:36.057Z,43.96
2022-09-12T03:40:07.536Z,43.87
2022-09-12T03:40:38.994Z,43.84
2022-09-12T03:41:10.376Z,43.98
2022-09-12T03:41:41.761Z,44.04
2022-09-12T03:42:13.176Z,44.22
2022-09-12T03:42:44.586Z,43.92
2022-09-12T03:43:15.971Z,43.92
2022-09-12T03:43:47.440Z,44.07
2022-09-12T03:44:18.823Z,44.26
2022-09-12T03:44:50.217Z,44.09
2022-09-12T03:45:21.598Z,43.98
2022-09-12T03:45:53.030Z,43.98
2022-09-12T03:46:24.459Z,43.86
2022-09-12T03:46:55.853Z,43.77
2022-09-12T03:47:27.255Z,44.10
2022-09-12T03:47:58.651Z,44.15
2022-09-12T03:48:30.036Z,43.78
2022-09-12T03:49:01.476Z,44.04
2022-09-12T03:49:32.864Z,44.06
2022-09-12T03:50:04.272Z,43.79
2022-09-12T03:50:35.656Z,43.78
2022-09-12T03:51:07.057Z,44.03
2022-09-12T03:51:38.463Z,44.11
2022-09-12T03:52:09.843Z,43.94
2022-09-12T03:52:41.231Z,44.13
2022-09-12T03:53:16.919Z,44.29
2022-09-12T03:53:48.687Z,44.01
2022-09-12T03:54:20.141Z,44.22
2022-09-12T03:54:51.530Z,44.17
2022-09-12T03:55:22.927Z,43.76
2022-09-12T03:55:54.333Z,44.37
2022-09-12T03:56:25.741Z,44.21
2022-09-12T03:56:57.134Z,44.11
2022-09-12T03:57:28.521Z,44.43
2022-09-12T03:57:59.927Z,44.12
2022-09-12T03:58:31.312Z,43.97
2022-09-12T03:59:02.691Z,43.89
2022-09-12T03:59:34.204Z,43.95
2022-09-12T04:00:05.587Z,44.18
2022-09-12T04:00:36.968Z,44.23
2022-09-12T04:01:08.372Z,44.44
2022-09-12T04:01:39.816Z,43.92
2022-09-12T04:02:11.254Z,44.19
2022-09-12T04:02:42.684Z,44.45
2022-09-12T04:03:14.208Z,43.82
2022-09-12T04:03:45.587Z,44.06
2022-09-12T04:04:16.976Z,43.99
2022-09-12T04:04:48.479Z,43.94
2022-09-12T04:05:19.915Z,43.87
2022-09-12T04:05:51.319Z,43.93
2022-09-12T04:06:22.701Z,43.95
2022-09-12T04:06:54.108Z,43.87
2022-09-12T04:07:25.518Z,44.39
2022-09-12T04:07:56.924Z,44.17
2022-09-12T04:08:28.299Z,44.49
2022-09-12T04:08:59.696Z,44.39
2022-09-12T04:09:31.091Z,44.17
2022-09-12T04:10:02.637Z,44.23
2022-09-12T04:10:34.042Z,44.23
2022-09-12T04:11:05.421Z,44.27
2022-09-12T04:11:36.813Z,44.01
2022-09-12T04:12:08.211Z,43.66
2022-09-12T04:12:39.633Z,44.39
2022-09-12T04:13:11.042Z,44.43
2022-09-12T04:13:42.419Z,44.16
2022-09-12T04:14:13.805Z,44.30
2022-09-12T04:14:45.193Z,44.20
2022-09-12T04:15:16.688Z,44.01
2022-09-12T04:15:48.077Z,44.34
2022-09-12T04:16:19.540Z,43.56
2022-09-12T04:16:51.020Z,43.93
2022-09-12T04:17:22.463Z,44.48
2022-09-12T04:17:53.859Z,44.05
2022-09-12T04:18:25.267Z,44.27
2022-09-12T04:18:56.716Z,44.27
2022-09-12T04:19:28.131Z,44.18
2022-09-12T04:19:59.539Z,44.48
2022-09-12T04:20:30.970Z,44.28
2022-09-12T04:21:02.347Z,44.33
2022-09-12T04:21:33.748Z,44.29
2022-09-12T04:22:05.151Z,44.06
2022-09-12T04:22:36.555Z,44.34
2022-09-12T04:23:07.942Z,43.96
2022-09-12T04:23:39.366Z,44.26
2022-09-12T04:24:10.937Z,44.25
2022-09-12T04:24:42.323Z,43.95
2022-09-12T04:25:13.725Z,44.00
2022-09-12T04:25:45.128Z,43.83
2022-09-12T04:26:16.530Z,44.29
2022-09-12T04:26:47.933Z,44.04
2022-09-12T04:27:19.332Z,44.52
2022-09-12T04:27:50.716Z,44.53
2022-09-12T04:28:22.109Z,43.92
2022-09-12T04:28:53.508Z,44.11
2022-09-12T04:29:24.936Z,44.30
2022-09-12T04:29:56.324Z,44.20
2022-09-12T04:30:27.752Z,44.28
2022-09-12T04:30:59.188Z,44.28
2022-09-12T04:31:30.633Z,44.21
2022-09-12T04:32:02.042Z,44.16
2022-09-12T04:32:33.445Z,44.05
2022-09-12T04:33:07.987Z,43.96
2022-09-12T04:33:39.638Z,44.53
2022-09-12T04:34:11.045Z,44.34
2022-09-12T04:34:42.459Z,44.51
2022-09-12T04:35:13.843Z,44.52
2022-09-12T04:35:45.293Z,44.67
2022-09-12T04:36:16.812Z,44.27
2022-09-12T04:36:48.260Z,44.14
2022-09-12T04:37:19.643Z,44.81
2022-09-12T04:37:51.191Z,44.41
2022-09-12T04:38:22.598Z,44.14
2022-09-12T04:38:54.003Z,44.40
2022-09-12T04:39:25.383Z,44.26
2022-09-12T04:39:56.910Z,44.39
2022-09-12T04:40:28.319Z,44.06
2022-09-12T04:40:59.704Z,44.43
2022-09-12T04:41:31.125Z,44.28
2022-09-12T04:42:02.508Z,43.96
2022-09-12T04:42:33.904Z,44.57
2022-09-12T04:43:05.287Z,44.12
2022-09-12T04:43:36.667Z,44.34
2022-09-12T04:44:08.076Z,44.22
2022-09-12T04:44:39.456Z,44.30
2022-09-12T04:45:10.955Z,44.30
2022-09-12T04:45:42.381Z,44.02
2022-09-12T04:46:13.802Z,44.20
2022-09-12T04:46:45.219Z,44.45
2022-09-12T04:47:16.619Z,43.93
2022-09-12T04:47:48.019Z,44.51
2022-09-12T04:48:19.400Z,44.41
2022-09-12T04:48:54.615Z,44.00
2022-09-12T04:49:28.195Z,44.36
2022-09-12T04:49:59.575Z,43.97
2022-09-12T04:50:31.040Z,44.06
2022-09-12T04:51:02.420Z,44.39
2022-09-12T04:51:33.813Z,44.40
2022-09-12T04:52:05.208Z,44.15
2022-09-12T04:52:36.592Z,44.07
2022-09-12T04:53:07.975Z,44.01
2022-09-12T04:53:39.388Z,43.99
2022-09-12T04:54:10.772Z,44.11
2022-09-12T04:54:42.155Z,44.18
2022-09-12T04:55:13.546Z,44.06
2022-09-12T04:55:45.020Z,43.72
2022-09-12T04:56:16.400Z,43.94
2022-09-12T04:56:47.788Z,43.98
2022-09-12T04:57:19.172Z,43.97
2022-09-12T04:57:50.553Z,44.27
2022-09-12T04:58:21.961Z,43.70
2022-09-12T04:58:53.353Z,44.13
2022-09-12T04:59:24.740Z,43.77
2022-09-12T04:59:56.139Z,43.69
2022-09-12T05:00:27.548Z,43.68
2022-09-12T05:00:59.106Z,43.73
2022-09-12T05:01:30.618Z,43.96
2022-09-12T05:02:02.109Z,43.66
2022-09-12T05:02:33.545Z,44.11
2022-09-12T05:03:04.940Z,44.12
2022-09-12T05:03:36.320Z,43.95
2022-09-12T05:04:07.704Z,43.97
2022-09-12T05:04:39.119Z,43.95
2022-09-12T05:05:10.502Z,43.81
2022-09-12T05:05:41.892Z,43.77
2022-09-12T05:06:13.417Z,43.52
2022-09-12T05:06:44.807Z,43.82
2022-09-12T05:07:16.199Z,43.98
2022-09-12T05:07:47.603Z,44.01
2022-09-12T05:08:18.981Z,43.31
2022-09-12T05:08:50.360Z,43.55
2022-09-12T05:09:21.743Z,44.14
2022-09-12T05:09:53.147Z,43.36
2022-09-12T05:10:24.559Z,43.88
2022-09-12T05:10:55.947Z,43.43
2022-09-12T05:11:41.274Z,43.26
2022-09-12T05:12:18.757Z,43.83
2022-09-12T05:12:50.141Z,43.50
2022-09-12T05:13:21.544Z,43.66
2022-09-12T05:13:52.959Z,43.60
2022-09-12T05:14:24.369Z,43.47
2022-09-12T05:14:55.792Z,43.24
2022-09-12T05:15:27.171Z,43.45
2022-09-12T05:15:58.561Z,43.55
2022-09-12T05:16:29.982Z,43.82
2022-09-12T05:17:01.700Z,43.71
2022-09-12T05:17:33.464Z,43.74
2022-09-12T05:18:04.845Z,43.28
2022-09-12T05:18:36.327Z,43.45
2022-09-12T05:19:07.885Z,43.73
2022-09-12T05:19:39.275Z,43.28
2022-09-12T05:20:10.657Z,43.59
2022-09-12T05:20:42.035Z,43.58
2022-09-12T05:21:13.431Z,43.29
2022-09-12T05:21:44.815Z,43.27
2022-09-12T05:22:16.208Z,42.97
2022-09-12T05:22:47.592Z,43.31
2022-09-12T05:23:18.972Z,43.39
2022-09-12T05:23:50.352Z,43.11
2022-09-12T05:24:21.843Z,43.00
2022-09-12T05:24:53.322Z,43.19
2022-09-12T05:25:24.727Z,42.91
2022-09-12T05:25:56.109Z,43.28
2022-09-12T05:26:27.537Z,43.41
2022-09-12T05:26:58.925Z,43.13
2022-09-12T05:27:30.311Z,43.37
2022-09-12T05:28:01.695Z,43.07
2022-09-12T05:28:33.124Z,43.53
2022-09-12T05:29:04.507Z,43.14
2022-09-12T05:29:35.999Z,43.31
2022-09-12T05:30:07.406Z,43.33
2022-09-12T05:30:38.844Z,43.25
2022-09-12T05:31:10.250Z,42.98
2022-09-12T05:31:41.676Z,43.38
2022-09-12T05:32:13.068Z,43.38
2022-09-12T05:32:44.454Z,43.13
2022-09-12T05:33:15.860Z,43.37
2022-09-12T05:33:47.242Z,43.24
2022-09-12T05:34:18.629Z,43.53
2022-09-12T05:34:50.071Z,43.14
2022-09-12T05:35:21.471Z,43.44
2022-09-12T05:35:52.856Z,43.34
2022-09-12T05:36:24.242Z,43.00
2022-09-12T05:36:55.620Z,43.09
2022-09-12T05:37:27.004Z,43.02
2022-09-12T05:37:58.387Z,43.04
2022-09-12T05:38:29.767Z,42.90
2022-09-12T05:39:01.153Z,42.78
2022-09-12T05:39:32.583Z,43.20
2022-09-12T05:40:04.083Z,42.98
2022-09-12T05:40:35.624Z,43.27
2022-09-12T05:41:07.007Z,42.78
2022-09-12T05:41:38.476Z,42.79
2022-09-12T05:42:09.889Z,42.86
2022-09-12T05:42:41.428Z,43.13
2022-09-12T05:43:12.816Z,42.60
2022-09-12T05:43:44.280Z,42.90
2022-09-12T05:44:15.683Z,42.61
2022-09-12T05:44:47.093Z,42.85
2022-09-12T05:45:18.476Z,42.95
2022-09-12T05:45:49.884Z,43.04
2022-09-12T05:46:21.307Z,42.91
2022-09-12T05:46:52.716Z,43.14
2022-09-12T05:47:24.128Z,42.73
2022-09-12T05:47:55.535Z,43.04
2022-09-12T05:48:26.946Z,42.94
2022-09-12T05:48:58.451Z,43.22
2022-09-12T05:49:29.843Z,43.29
2022-09-12T05:50:01.224Z,43.26
2022-09-12T05:50:32.623Z,43.06
2022-09-12T05:51:04.004Z,43.09
2022-09-12T05:51:35.435Z,42.93
2022-09-12T05:52:06.839Z,42.92
2022-09-12T05:52:38.227Z,43.20
2022-09-12T05:53:09.623Z,42.96
2022-09-12T05:53:41.009Z,42.90
2022-09-12T05:54:12.504Z,42.90
2022-09-12T05:54:43.903Z,43.25
2022-09-12T05:55:15.285Z,42.86
2022-09-12T05:55:46.696Z,43.40
2022-09-12T05:56:18.076Z,43.32
2022-09-12T05:56:49.457Z,43.49
2022-09-12T05:57:20.843Z,43.27
2022-09-12T05:57:52.253Z,43.17
2022-09-12T05:58:23.631Z,42.94
2022-09-12T05:58:55.028Z,43.15
2022-09-12T05:59:26.455Z,42.76
2022-09-12T05:59:57.856Z,43.01
2022-09-12T06:00:33.285Z,43.16
2022-09-12T06:01:05.007Z,43.29
2022-09-12T06:01:36.524Z,42.99
2022-09-12T06:02:08.007Z,43.47
2022-09-12T06:02:39.440Z,42.90
2022-09-12T06:03:10.841Z,43.39
2022-09-12T06:03:42.250Z,43.16
2022-09-12T06:04:14.007Z,42.92
2022-09-12T06:04:45.413Z,43.13
2022-09-12T06:05:16.796Z,43.43
2022-09-12T06:05:50.684Z,42.90
2022-09-12T06:06:22.212Z,43.33
2022-09-12T06:06:53.604Z,43.15
2022-09-12T06:07:25.020Z,43.31
2022-09-12T06:07:56.423Z,43.39
2022-09-12T06:08:27.805Z,43.46
2022-09-12T06:08:59.207Z,42.83
2022-09-12T06:09:30.709Z,43.45
2022-09-12T06:10:02.092Z,43.00
2022-09-12T06:10:33.485Z,42.98
2022-09-12T06:11:04.890Z,42.80
2022-09-12T06:11:36.293Z,43.28
2022-09-12T06:12:07.684Z,43.06
2022-09-12T06:12:39.064Z,42.79
2022-09-12T06:13:10.445Z,42.83
2022-09-12T06:13:41.838Z,43.36
2022-09-12T06:14:13.232Z,43.17
2022-09-12T06:14:44.769Z,43.16
2022-09-12T06:15:16.151Z,43.11
2022-09-12T06:15:47.561Z,42.54
2022-09-12T06:16:19.028Z,42.80
2022-09-12T06:16:50.494Z,43.06
2022-09-12T06:17:21.959Z,43.21
2022-09-12T06:17:53.348Z,42.75
2022-09-12T06:18:24.734Z,43.09
2022-09-12T06:18:56.190Z,43.25
2022-09-12T06:19:27.574Z,43.26
2022-09-12T06:19:59.105Z,43.22
2022-09-12T06:20:30.485Z,43.07
2022-09-12T06:21:01.883Z,42.80
2022-09-12T06:21:33.281Z,42.93
2022-09-12T06:22:04.669Z,43.18
2022-09-12T06:22:36.061Z,43.43
2022-09-12T06:23:07.472Z,43.53
2022-09-12T06:23:38.857Z,43.19
2022-09-12T06:24:10.266Z,43.11
2022-09-12T06:24:41.664Z,43.53
2022-09-12T06:25:13.089Z,43.02
2022-09-12T06:25:47.258Z,43.31
2022-09-12T06:26:18.639Z,43.22
2022-09-12T06:26:50.032Z,43.24
2022-09-12T06:27:21.443Z,42.97
2022-09-12T06:27:52.844Z,43.35
2022-09-12T06:28:24.297Z,43.05
2022-09-12T06:28:55.684Z,43.11
2022-09-12T06:29:27.068Z,43.58
2022-09-12T06:29:58.472Z,43.14
2022-09-12T06:30:29.990Z,43.48
2022-09-12T06:31:01.476Z,43.32
2022-09-12T06:31:32.887Z,43.39
2022-09-12T06:32:04.291Z,43.42
2022-09-12T06:32:35.680Z,43.38
2022-09-12T06:33:07.069Z,43.30
2022-09-12T06:33:38.471Z,42.97
2022-09-12T06:34:09.870Z,42.62
2022-09-12T06:34:41.264Z,43.44
2022-09-12T06:35:12.668Z,43.54
2022-09-12T06:35:44.189Z,43.24
2022-09-12T06:36:15.573Z,43.52
2022-09-12T06:36:46.955Z,43.39
2022-09-12T06:37:18.335Z,43.45
2022-09-12T06:37:49.724Z,43.29
2022-09-12T06:38:21.116Z,42.93
2022-09-12T06:38:52.517Z,43.05
2022-09-12T06:39:23.896Z,43.09
2022-09-12T06:39:56.117Z,42.88
2022-09-12T06:40:27.547Z,43.04
2022-09-12T06:40:59.059Z,43.47
2022-09-12T06:41:30.444Z,42.79
2022-09-12T06:42:01.849Z,43.27
2022-09-12T06:42:33.247Z,43.08
2022-09-12T06:43:04.631Z,43.08
2022-09-12T06:43:36.012Z,42.78
2022-09-12T06:44:07.396Z,43.14
2022-09-12T06:44:38.791Z,43.28
2022-09-12T06:45:10.200Z,42.79
2022-09-12T06:45:41.639Z,42.98